Time;durP1;ratioP1;P1;durP2;ratioP2;P2;SDS_P1;SDS_P2;PMS_P1;PMS_P2;Temp;Humidity;BMP_temperature;BMP_pressure;BME280_temperature;BME280_humidity;BME280_pressure;Samples;Min_cycle;Max_cycle;Signal;HPM_P1;HPM_P2
2022/10/22 00:02:10;;;;;;;5.65;3.70;;;10.50;74.80;;;;;;6399184;22;20071;-80
2022/10/22 00:04:36;;;;;;;7.95;4.53;;;10.50;74.80;;;;;;6399386;22;20010;-80
2022/10/22 00:07:02;;;;;;;6.03;3.80;;;10.50;74.80;;;;;;6398869;22;20018;-79
2022/10/22 00:09:28;;;;;;;5.55;3.70;;;10.50;74.90;;;;;;6398997;22;20022;-79
2022/10/22 00:11:53;;;;;;;5.78;3.95;;;10.50;75.00;;;;;;6318159;22;20024;-79
2022/10/22 00:14:19;;;;;;;4.82;3.58;;;10.60;75.00;;;;;;6344502;22;20469;-79
2022/10/22 00:16:45;;;;;;;6.35;4.25;;;10.50;75.00;;;;;;6344386;22;20397;-80
2022/10/22 00:19:12;;;;;;;5.22;3.85;;;10.50;75.00;;;;;;6344628;22;20040;-78
2022/10/22 00:21:38;;;;;;;4.95;3.45;;;10.50;75.00;;;;;;6344613;22;20122;-81
2022/10/22 00:24:04;;;;;;;6.38;4.22;;;10.50;75.10;;;;;;6344812;22;20503;-80
2022/10/22 00:26:30;;;;;;;4.55;3.65;;;10.50;75.20;;;;;;6371014;22;20013;-81
2022/10/22 00:28:56;;;;;;;4.40;3.70;;;10.50;75.30;;;;;;6370929;22;20129;-81
2022/10/22 00:31:22;;;;;;;5.50;3.35;;;10.40;75.20;;;;;;6371684;22;20028;-81
2022/10/22 00:33:48;;;;;;;5.72;3.50;;;10.40;75.10;;;;;;6399049;22;20018;-80
2022/10/22 00:36:15;;;;;;;5.38;3.42;;;10.50;75.30;;;;;;6370895;22;20017;-80
2022/10/22 00:38:41;;;;;;;5.22;4.05;;;10.40;75.30;;;;;;6398610;22;20097;-80
2022/10/22 00:41:07;;;;;;;5.10;3.70;;;10.50;75.50;;;;;;6370602;22;20013;-80
2022/10/22 00:43:51;;;;;;;5.88;3.47;;;10.40;75.40;;;;;;6344999;22;20286;-79
2022/10/22 00:46:17;;;;;;;4.72;3.40;;;10.50;75.50;;;;;;6370634;22;20428;-79
2022/10/22 00:48:43;;;;;;;6.22;3.78;;;10.50;75.60;;;;;;6370398;22;20040;-80
2022/10/22 00:51:09;;;;;;;4.82;3.40;;;10.40;75.70;;;;;;6370816;22;20468;-80
2022/10/22 00:53:38;;;;;;;6.35;3.67;;;10.40;75.80;;;;;;6343946;22;20021;-80
2022/10/22 00:56:05;;;;;;;4.95;3.83;;;10.40;75.90;;;;;;6344472;22;20717;-80
2022/10/22 00:58:34;;;;;;;4.80;3.50;;;10.40;75.80;;;;;;6344905;22;20021;-80
2022/10/22 01:01:01;;;;;;;4.82;3.90;;;10.40;75.70;;;;;;6370381;22;20021;-80
2022/10/22 01:03:28;;;;;;;10.70;3.80;;;10.40;75.60;;;;;;6318122;22;20516;-79
2022/10/22 01:05:59;;;;;;;6.10;4.18;;;10.40;75.50;;;;;;6370279;22;20099;-80
2022/10/22 01:08:39;;;;;;;6.88;3.38;;;10.40;76.10;;;;;;6398520;22;20006;-80
2022/10/22 01:11:46;;;;;;;5.43;3.58;;;10.40;75.50;;;;;;6370271;22;20078;-80
2022/10/22 01:14:23;;;;;;;5.97;3.55;;;10.40;75.60;;;;;;6219114;22;20034;-79
2022/10/22 01:17:13;;;;;;;4.28;3.58;;;10.40;75.70;;;;;;6243863;22;20008;-79
2022/10/22 01:20:02;;;;;;;7.15;4.07;;;10.40;75.70;;;;;;6245190;22;20011;-79
2022/10/22 01:22:38;;;;;;;5.18;3.83;;;10.40;75.80;;;;;;6244305;22;20042;-80
2022/10/22 01:25:15;;;;;;;8.48;3.97;;;10.40;75.90;;;;;;6269447;22;20016;-80
2022/10/22 01:27:56;;;;;;;4.95;3.50;;;10.40;75.90;;;;;;6218675;22;20104;-81
2022/10/22 01:30:23;;;;;;;5.60;3.88;;;10.40;75.80;;;;;;6193702;22;20118;-81
2022/10/22 01:32:55;;;;;;;5.35;3.40;;;10.40;75.80;;;;;;6243892;22;20493;-81
2022/10/22 01:35:32;;;;;;;7.55;3.83;;;10.40;75.70;;;;;;6244406;22;20077;-81
2022/10/22 01:38:01;;;;;;;5.75;4.00;;;10.40;75.60;;;;;;6218941;22;20481;-80
2022/10/22 01:40:28;;;;;;;4.40;3.70;;;10.40;75.60;;;;;;6219233;22;20518;-82
2022/10/22 01:43:03;;;;;;;6.53;3.97;;;10.40;75.50;;;;;;6243792;22;20465;-81
2022/10/22 01:45:33;;;;;;;5.65;4.03;;;10.40;75.50;;;;;;6243902;22;20020;-82
2022/10/22 01:47:59;;;;;;;6.25;4.15;;;10.40;75.50;;;;;;6269458;22;20024;-82
2022/10/22 01:50:49;;;;;;;6.40;3.80;;;10.40;75.50;;;;;;6339293;22;20102;-82
2022/10/22 01:53:41;;;;;;;6.32;4.20;;;10.40;75.70;;;;;;6317448;22;20029;-82
2022/10/22 01:56:48;;;;;;;7.35;3.75;;;10.40;75.80;;;;;;6363622;22;20018;-82
2022/10/22 01:59:24;;;;;;;6.50;3.50;;;10.40;75.90;;;;;;6244245;22;20046;-81
2022/10/22 02:02:10;;;;;;;5.43;3.72;;;10.40;75.90;;;;;;6243978;22;20016;-83
2022/10/22 02:05:04;;;;;;;6.68;4.10;;;10.40;76.00;;;;;;6244577;22;20666;-83
2022/10/22 02:07:37;;;;;;;5.88;4.03;;;10.40;76.10;;;;;;6244145;22;20027;-81
2022/10/22 02:10:04;;;;;;;5.80;3.90;;;10.40;76.00;;;;;;6243253;22;20020;-82
2022/10/22 02:12:31;;;;;;;4.53;3.65;;;10.30;75.90;;;;;;6243609;22;20078;-80
2022/10/22 02:14:59;;;;;;;5.90;3.85;;;10.40;75.90;;;;;;6218516;22;20082;-82
2022/10/22 02:17:28;;;;;;;6.47;4.07;;;10.40;75.90;;;;;;6243906;22;20016;-82
2022/10/22 02:20:02;;;;;;;7.68;3.78;;;10.40;76.00;;;;;;6243914;22;20011;-80
2022/10/22 02:22:28;;;;;;;4.72;3.67;;;10.40;76.00;;;;;;6270233;22;20008;-80
2022/10/22 02:24:55;;;;;;;4.32;3.53;;;10.40;76.00;;;;;;6243767;22;20159;-78
2022/10/22 02:27:25;;;;;;;8.88;3.78;;;10.40;76.10;;;;;;6243604;22;20371;-80
2022/10/22 02:30:00;;;;;;;8.00;3.83;;;10.40;76.30;;;;;;6292974;22;20368;-80
2022/10/22 02:32:30;;;;;;;5.22;3.63;;;10.40;76.30;;;;;;6369605;22;20018;-80
2022/10/22 02:34:58;;;;;;;4.95;3.40;;;10.40;76.50;;;;;;6369318;22;20341;-80
2022/10/22 02:37:24;;;;;;;6.78;3.90;;;10.40;76.60;;;;;;6369621;22;20010;-79
2022/10/22 02:39:51;;;;;;;6.07;4.07;;;10.40;76.50;;;;;;6369621;22;20573;-81
2022/10/22 02:42:18;;;;;;;4.65;3.50;;;10.40;76.50;;;;;;6343320;22;20056;-80
2022/10/22 02:44:44;;;;;;;5.28;3.70;;;10.40;76.50;;;;;;6398034;22;20021;-81
2022/10/22 02:47:09;;;;;;;5.38;3.83;;;10.40;76.50;;;;;;6370025;22;20033;-80
2022/10/22 02:49:35;;;;;;;4.63;3.65;;;10.40;76.50;;;;;;6370064;22;20063;-80
2022/10/22 02:52:01;;;;;;;5.88;3.90;;;10.40;76.60;;;;;;6342972;22;20021;-80
2022/10/22 02:54:27;;;;;;;5.28;3.72;;;10.40;76.50;;;;;;6343611;22;20025;-81
2022/10/22 02:56:53;;;;;;;6.93;4.18;;;10.40;76.60;;;;;;6399831;22;20017;-81
2022/10/22 02:59:19;;;;;;;7.32;3.83;;;10.40;76.60;;;;;;6345571;22;20464;-81
2022/10/22 03:01:45;;;;;;;6.13;3.58;;;10.40;76.60;;;;;;6371907;22;20045;-81
2022/10/22 03:04:11;;;;;;;6.85;4.25;;;10.40;76.60;;;;;;6372187;22;20058;-81
2022/10/22 03:06:36;;;;;;;6.00;3.95;;;10.40;76.60;;;;;;6345294;22;20042;-82
2022/10/22 03:09:02;;;;;;;5.60;3.92;;;10.40;76.50;;;;;;6318704;22;20033;-81
2022/10/22 03:11:28;;;;;;;6.70;3.95;;;10.40;76.50;;;;;;6318946;22;20018;-81
2022/10/22 03:13:54;;;;;;;5.32;3.65;;;10.40;76.50;;;;;;6371591;22;20022;-81
2022/10/22 03:16:20;;;;;;;7.10;4.32;;;10.40;76.50;;;;;;6319333;22;20012;-81
2022/10/22 03:18:46;;;;;;;8.02;3.65;;;10.40;76.50;;;;;;6318981;22;20082;-81
2022/10/22 03:21:59;;;;;;;5.65;4.22;;;10.40;76.50;;;;;;6345142;22;20020;-82
2022/10/22 03:24:33;;;;;;;5.78;4.43;;;10.40;76.50;;;;;;6219321;22;20016;-80
2022/10/22 03:26:59;;;;;;;4.85;3.80;;;10.40;76.60;;;;;;6245184;22;20395;-80
2022/10/22 03:29:26;;;;;;;6.38;3.72;;;10.40;76.60;;;;;;6244920;22;20123;-79
2022/10/22 03:31:53;;;;;;;5.38;3.50;;;10.40;76.70;;;;;;6247312;22;20382;-79
2022/10/22 03:34:19;;;;;;;6.40;3.95;;;10.40;76.80;;;;;;6246901;22;20004;-79
2022/10/22 03:36:46;;;;;;;7.05;4.30;;;10.40;76.80;;;;;;6245231;22;20575;-79
2022/10/22 03:39:15;;;;;;;6.40;4.18;;;10.40;76.80;;;;;;6245074;22;20019;-78
2022/10/22 03:41:43;;;;;;;5.70;4.00;;;10.40;76.90;;;;;;6244593;22;20039;-83
2022/10/22 03:44:09;;;;;;;6.60;4.65;;;10.40;76.90;;;;;;6245397;22;20034;-84
2022/10/22 03:46:35;;;;;;;6.50;4.50;;;10.40;76.80;;;;;;6246193;22;20008;-85
2022/10/22 03:49:01;;;;;;;5.82;4.63;;;10.40;76.80;;;;;;6244968;22;20015;-81
2022/10/22 03:51:27;;;;;;;7.97;4.60;;;10.40;76.80;;;;;;6244935;22;20085;-81
2022/10/22 03:53:53;;;;;;;7.65;4.90;;;10.40;76.70;;;;;;6219281;22;20098;-81
2022/10/22 03:56:19;;;;;;;6.90;4.47;;;10.40;76.70;;;;;;6245073;22;20020;-81
2022/10/22 03:58:45;;;;;;;6.53;5.25;;;10.40;76.70;;;;;;6319971;22;20005;-81
2022/10/22 04:01:13;;;;;;;8.55;5.15;;;10.40;76.60;;;;;;6345149;22;20010;-80
2022/10/22 04:03:39;;;;;;;7.50;4.80;;;10.40;76.60;;;;;;6398775;22;20017;-80
2022/10/22 04:06:10;;;;;;;6.30;4.78;;;10.50;76.70;;;;;;6370931;22;20017;-80
2022/10/22 04:08:38;;;;;;;7.75;5.10;;;10.40;76.70;;;;;;6370810;22;20041;-80
2022/10/22 04:11:05;;;;;;;6.25;4.53;;;10.40;76.60;;;;;;6344241;22;20017;-80
2022/10/22 04:13:31;;;;;;;7.30;5.00;;;10.40;76.50;;;;;;6344966;22;20017;-80
2022/10/22 04:16:08;;;;;;;7.07;4.70;;;10.40;76.50;;;;;;6370999;22;20021;-80
2022/10/22 04:18:35;;;;;;;8.35;4.93;;;10.40;76.60;;;;;;6344568;22;20530;-80
2022/10/22 04:21:01;;;;;;;8.40;4.93;;;10.40;76.60;;;;;;6399621;22;20460;-85
2022/10/22 04:23:27;;;;;;;8.13;5.18;;;10.40;76.70;;;;;;6344886;22;20096;-82
2022/10/22 04:26:00;;;;;;;7.60;4.90;;;10.40;76.80;;;;;;6371068;22;20044;-79
2022/10/22 04:28:26;;;;;;;6.75;4.68;;;10.40;76.80;;;;;;6399180;22;20105;-78
2022/10/22 04:30:53;;;;;;;8.93;4.50;;;10.40;76.80;;;;;;6370826;22;20033;-81
2022/10/22 04:33:19;;;;;;;7.28;4.55;;;10.40;76.90;;;;;;6344036;22;20465;-81
2022/10/22 04:35:45;;;;;;;7.05;4.15;;;10.40;76.90;;;;;;6370858;22;20014;-81
2022/10/22 04:38:11;;;;;;;5.93;4.72;;;10.40;76.90;;;;;;6318842;22;20389;-82
2022/10/22 04:40:37;;;;;;;7.70;4.70;;;10.40;76.90;;;;;;6399703;22;20009;-86
2022/10/22 04:43:03;;;;;;;7.30;4.75;;;10.40;76.90;;;;;;6344014;22;20483;-78
2022/10/22 04:45:29;;;;;;;7.90;5.35;;;10.40;76.90;;;;;;6344019;22;20021;-79
2022/10/22 04:47:56;;;;;;;8.68;5.40;;;10.50;77.00;;;;;;6317749;22;20364;-77
2022/10/22 04:50:21;;;;;;;6.32;4.32;;;10.50;76.90;;;;;;6370267;22;20024;-80
2022/10/22 04:52:47;;;;;;;6.05;4.45;;;10.40;76.90;;;;;;6343893;22;20092;-80
2022/10/22 04:55:13;;;;;;;7.00;4.85;;;10.50;77.00;;;;;;6370846;22;20002;-80
2022/10/22 04:57:39;;;;;;;7.22;4.47;;;10.40;76.90;;;;;;6398234;22;20173;-81
2022/10/22 05:00:06;;;;;;;7.00;4.43;;;10.50;77.00;;;;;;6370039;22;20013;-79
2022/10/22 05:02:32;;;;;;;8.65;4.78;;;10.50;77.10;;;;;;6343679;22;20025;-80
2022/10/22 05:04:57;;;;;;;6.50;5.15;;;10.50;77.00;;;;;;6343600;22;20020;-81
2022/10/22 05:07:24;;;;;;;8.07;5.10;;;10.50;77.10;;;;;;6370733;22;20010;-80
2022/10/22 05:09:50;;;;;;;5.85;4.60;;;10.50;77.20;;;;;;6343999;22;20021;-81
2022/10/22 05:12:16;;;;;;;7.10;4.30;;;10.50;77.30;;;;;;6343517;22;20067;-81
2022/10/22 05:14:42;;;;;;;6.97;4.88;;;10.50;77.40;;;;;;6369675;22;20118;-81
2022/10/22 05:17:07;;;;;;;6.65;4.80;;;10.50;77.40;;;;;;6343008;22;20393;-80
2022/10/22 05:19:33;;;;;;;7.22;4.82;;;10.50;77.40;;;;;;6344395;22;20096;-80
2022/10/22 05:22:01;;;;;;;7.35;5.07;;;10.50;77.40;;;;;;6343320;22;20017;-80
2022/10/22 05:24:29;;;;;;;8.13;5.28;;;10.50;77.30;;;;;;6398114;22;20491;-81
2022/10/22 05:26:57;;;;;;;7.13;4.85;;;10.50;77.30;;;;;;6317723;22;20016;-81
2022/10/22 05:29:23;;;;;;;8.15;5.38;;;10.50;77.30;;;;;;6343183;22;20021;-80
2022/10/22 05:31:50;;;;;;;7.25;5.43;;;10.50;77.30;;;;;;6397599;22;20033;-78
2022/10/22 05:34:17;;;;;;;6.43;5.20;;;10.50;77.30;;;;;;6370379;22;20014;-78
2022/10/22 05:36:43;;;;;;;6.38;4.95;;;10.60;77.30;;;;;;6397553;22;20013;-75
2022/10/22 05:39:09;;;;;;;7.68;5.35;;;10.50;77.20;;;;;;6369020;22;20532;-74
2022/10/22 05:41:35;;;;;;;7.25;4.82;;;10.60;77.30;;;;;;6369025;22;20021;-75
2022/10/22 05:44:02;;;;;;;8.52;5.50;;;10.60;77.30;;;;;;6396891;22;20021;-76
2022/10/22 05:46:29;;;;;;;6.68;4.65;;;10.60;78.50;;;;;;6397822;22;20005;-75
2022/10/22 05:48:58;;;;;;;9.23;5.05;;;10.70;78.60;;;;;;6369119;22;20472;-77
2022/10/22 05:51:25;;;;;;;8.93;5.22;;;10.70;78.40;;;;;;6369025;22;20453;-77
2022/10/22 05:53:53;;;;;;;7.13;4.80;;;10.70;78.20;;;;;;6368813;22;20028;-80
2022/10/22 05:56:20;;;;;;;6.25;4.32;;;10.70;78.70;;;;;;6368810;22;20542;-78
2022/10/22 05:58:46;;;;;;;6.65;4.43;;;10.70;77.80;;;;;;6342828;22;20014;-78
2022/10/22 06:01:14;;;;;;;6.07;4.28;;;10.60;77.50;;;;;;6369939;22;20101;-78
2022/10/22 06:03:40;;;;;;;4.63;4.05;;;10.70;77.30;;;;;;6396907;22;20014;-77
2022/10/22 06:06:23;;;;;;;4.65;3.53;;;10.60;77.10;;;;;;6396655;22;20025;-74
2022/10/22 06:08:51;;;;;;;5.43;3.70;;;10.60;77.00;;;;;;6396845;22;20464;-76
2022/10/22 06:11:19;;;;;;;6.50;3.53;;;10.60;77.00;;;;;;6396686;22;20012;-82
2022/10/22 06:13:46;;;;;;;4.90;3.38;;;10.60;76.90;;;;;;6368786;22;20009;-76
2022/10/22 06:16:13;;;;;;;5.45;3.03;;;10.60;76.80;;;;;;6343026;22;20002;-77
2022/10/22 06:18:39;;;;;;;3.42;2.75;;;10.60;76.80;;;;;;6396765;22;20163;-78
2022/10/22 06:21:07;;;;;;;3.85;2.97;;;10.60;77.00;;;;;;6397136;22;20018;-77
2022/10/22 06:23:33;;;;;;;3.78;3.15;;;10.60;76.80;;;;;;6398520;22;20018;-77
2022/10/22 06:26:00;;;;;;;4.03;3.38;;;10.60;76.70;;;;;;6370246;22;20456;-78
2022/10/22 06:28:26;;;;;;;4.30;3.17;;;10.60;76.80;;;;;;6398751;22;20014;-77
2022/10/22 06:30:52;;;;;;;4.38;3.45;;;10.60;76.90;;;;;;6372430;22;20014;-78
2022/10/22 06:33:18;;;;;;;4.45;3.45;;;10.60;76.90;;;;;;6400464;22;20101;-78
2022/10/22 06:35:44;;;;;;;4.90;3.65;;;10.70;77.00;;;;;;6345073;22;20042;-79
2022/10/22 06:38:10;;;;;;;5.43;3.60;;;10.60;77.00;;;;;;6344365;22;20009;-78
2022/10/22 06:40:36;;;;;;;5.60;3.90;;;10.60;77.10;;;;;;6345620;22;20117;-80
2022/10/22 06:43:02;;;;;;;4.38;3.47;;;10.70;77.20;;;;;;6344040;22;20422;-79
2022/10/22 06:45:28;;;;;;;4.82;3.53;;;10.60;77.20;;;;;;6346864;22;20020;-79
2022/10/22 06:47:54;;;;;;;6.05;4.10;;;10.70;77.40;;;;;;6320639;22;20484;-79
2022/10/22 06:50:20;;;;;;;5.13;3.70;;;10.70;77.40;;;;;;6320814;22;20013;-80
2022/10/22 06:52:46;;;;;;;4.88;3.78;;;10.70;77.40;;;;;;6346442;22;20021;-80
2022/10/22 06:55:12;;;;;;;5.03;3.90;;;10.70;77.40;;;;;;6401418;22;20006;-80
2022/10/22 06:57:38;;;;;;;4.95;3.97;;;10.70;77.60;;;;;;6372625;22;20066;-80
2022/10/22 07:00:08;;;;;;;7.53;4.10;;;10.80;77.60;;;;;;6399677;22;20097;-78
2022/10/22 07:02:34;;;;;;;5.20;4.38;;;10.80;77.70;;;;;;6399369;22;20039;-78
2022/10/22 07:04:59;;;;;;;6.97;4.35;;;10.80;77.80;;;;;;6399965;22;20489;-80
2022/10/22 07:07:25;;;;;;;4.38;3.63;;;10.80;77.90;;;;;;6320197;22;20036;-84
2022/10/22 07:09:51;;;;;;;5.47;4.18;;;10.80;77.80;;;;;;6348001;22;20033;-82
2022/10/22 07:12:17;;;;;;;6.40;4.75;;;10.90;77.80;;;;;;6346942;22;20071;-79
2022/10/22 07:14:43;;;;;;;7.20;4.40;;;10.90;77.90;;;;;;6371756;22;20018;-84
2022/10/22 07:17:09;;;;;;;6.72;4.45;;;11.00;78.00;;;;;;6399884;22;20014;-78
2022/10/22 07:19:35;;;;;;;5.93;4.15;;;11.00;78.00;;;;;;6398746;22;20062;-82
2022/10/22 07:22:01;;;;;;;7.60;4.20;;;11.10;80.80;;;;;;6398969;22;20010;-81
2022/10/22 07:24:27;;;;;;;6.35;4.28;;;11.20;82.10;;;;;;6345702;22;20024;-82
2022/10/22 07:26:53;;;;;;;6.63;4.55;;;11.20;81.60;;;;;;6345834;22;20050;-78
2022/10/22 07:29:19;;;;;;;6.47;4.80;;;11.20;80.50;;;;;;6400606;22;20100;-79
2022/10/22 07:31:45;;;;;;;6.75;5.68;;;11.30;79.70;;;;;;6372613;22;20002;-78
2022/10/22 07:34:11;;;;;;;7.15;5.65;;;11.30;79.10;;;;;;6400522;22;20010;-77
2022/10/22 07:36:36;;;;;;;8.73;5.07;;;11.30;78.60;;;;;;6400357;22;20017;-77
2022/10/22 07:39:03;;;;;;;7.30;5.63;;;11.30;78.80;;;;;;6399852;22;20045;-80
2022/10/22 07:41:29;;;;;;;10.55;5.53;;;11.30;78.00;;;;;;6399509;22;20006;-78
2022/10/22 07:43:56;;;;;;;6.97;5.35;;;11.30;77.90;;;;;;6372322;22;20041;-77
2022/10/22 07:46:23;;;;;;;8.00;5.75;;;11.30;77.80;;;;;;6373175;22;20097;-77
2022/10/22 07:48:49;;;;;;;6.57;5.05;;;11.30;77.80;;;;;;6372808;22;20424;-83
2022/10/22 07:51:16;;;;;;;9.32;5.10;;;11.30;77.70;;;;;;6345847;22;20022;-84
2022/10/22 07:53:42;;;;;;;8.40;5.32;;;11.40;77.60;;;;;;6372267;22;20049;-81
2022/10/22 07:56:08;;;;;;;5.45;4.63;;;11.40;77.40;;;;;;6345891;22;20472;-83
2022/10/22 07:58:35;;;;;;;7.07;5.20;;;11.40;77.10;;;;;;6319484;22;20006;-83
2022/10/22 08:01:04;;;;;;;6.25;4.18;;;11.40;76.90;;;;;;6319305;22;20020;-83
2022/10/22 08:03:30;;;;;;;5.93;4.47;;;11.40;76.70;;;;;;6344338;22;20045;-78
2022/10/22 08:05:56;;;;;;;6.60;4.28;;;11.50;76.50;;;;;;6398696;22;20018;-77
2022/10/22 08:08:23;;;;;;;7.68;3.97;;;11.50;76.20;;;;;;6370566;22;20033;-78
2022/10/22 08:10:52;;;;;;;5.72;3.88;;;11.50;75.90;;;;;;6398825;22;20013;-79
2022/10/22 08:13:18;;;;;;;5.38;3.90;;;11.50;75.60;;;;;;6371823;22;20398;-79
2022/10/22 08:15:45;;;;;;;5.43;3.88;;;11.50;75.30;;;;;;6399595;22;20025;-79
2022/10/22 08:18:12;;;;;;;5.75;3.45;;;11.50;75.60;;;;;;6370538;22;20101;-78
2022/10/22 08:20:38;;;;;;;6.25;3.63;;;11.50;74.80;;;;;;6370627;22;20472;-79
2022/10/22 08:23:04;;;;;;;4.63;3.70;;;11.50;74.60;;;;;;6371497;22;20014;-78
2022/10/22 08:25:31;;;;;;;4.57;3.50;;;11.50;74.40;;;;;;6398890;22;20013;-82
2022/10/22 08:27:57;;;;;;;6.68;3.47;;;11.50;74.30;;;;;;6320329;22;20067;-81
2022/10/22 08:30:26;;;;;;;5.68;3.42;;;11.50;75.70;;;;;;6346078;22;20066;-78
2022/10/22 08:32:52;;;;;;;5.78;3.35;;;11.50;76.50;;;;;;6398207;22;20432;-76
2022/10/22 08:35:18;;;;;;;6.00;3.70;;;11.60;76.00;;;;;;6369533;22;20101;-76
2022/10/22 08:37:44;;;;;;;8.20;3.00;;;11.50;75.40;;;;;;6343514;22;20052;-76
2022/10/22 08:40:18;;;;;;;9.00;4.18;;;11.60;75.40;;;;;;6398431;22;20055;-75
2022/10/22 08:43:16;;;;;;;6.55;4.10;;;11.60;75.50;;;;;;6369878;22;20365;-81
2022/10/22 08:45:56;;;;;;;7.88;4.60;;;11.60;75.70;;;;;;6370570;22;20402;-77
2022/10/22 08:48:48;;;;;;;10.85;5.25;;;11.70;76.00;;;;;;6343746;22;20565;-77
2022/10/22 08:51:19;;;;;;;6.85;4.97;;;11.60;75.90;;;;;;6398289;22;20024;-78
2022/10/22 08:54:12;;;;;;;9.52;5.20;;;11.60;75.80;;;;;;6369082;22;20582;-77
2022/10/22 08:56:43;;;;;;;7.75;4.68;;;11.70;75.80;;;;;;6371998;22;20101;-77
2022/10/22 08:59:27;;;;;;;8.60;4.65;;;11.70;76.00;;;;;;6403480;22;20014;-78
2022/10/22 09:01:54;;;;;;;9.55;5.13;;;11.70;76.10;;;;;;6346028;22;20093;-78
2022/10/22 09:04:49;;;;;;;8.73;5.00;;;11.80;76.10;;;;;;6347701;22;20352;-79
2022/10/22 09:07:15;;;;;;;8.02;4.95;;;11.80;76.00;;;;;;6345105;22;20097;-78
2022/10/22 09:09:48;;;;;;;7.57;5.10;;;11.80;75.80;;;;;;6399822;22;20033;-78
2022/10/22 09:12:16;;;;;;;9.27;5.88;;;11.80;75.60;;;;;;6345082;22;20418;-76
2022/10/22 09:14:42;;;;;;;10.23;4.82;;;11.90;75.60;;;;;;6399695;22;20014;-77
2022/10/22 09:17:22;;;;;;;7.35;4.60;;;11.90;75.70;;;;;;6398857;22;20397;-76
2022/10/22 09:20:14;;;;;;;13.07;5.50;;;11.90;75.50;;;;;;6399279;22;20012;-76
2022/10/22 09:22:59;;;;;;;7.32;4.53;;;11.90;75.30;;;;;;6371225;22;20013;-76
2022/10/22 09:25:27;;;;;;;6.38;4.68;;;12.00;75.00;;;;;;6371196;22;20096;-76
2022/10/22 09:27:57;;;;;;;7.63;4.80;;;12.00;75.00;;;;;;6398519;22;20026;-76
2022/10/22 09:30:29;;;;;;;6.38;4.47;;;12.00;74.90;;;;;;6397287;22;20018;-77
2022/10/22 09:33:06;;;;;;;8.77;5.10;;;12.00;75.00;;;;;;6398308;22;20508;-77
2022/10/22 09:35:42;;;;;;;7.55;4.80;;;12.00;75.00;;;;;;6398675;22;20010;-77
2022/10/22 09:38:08;;;;;;;;;;;12.00;75.00;;;;;;6398145;22;20456;-77
2022/10/22 09:40:47;;;;;;;7.95;4.40;;;12.00;74.90;;;;;;6397651;22;19913;-76
2022/10/22 09:43:13;;;;;;;7.40;4.28;;;12.00;74.60;;;;;;6369555;22;20484;-76
2022/10/22 09:45:40;;;;;;;7.60;4.13;;;12.00;74.50;;;;;;6369340;22;20551;-76
2022/10/22 09:48:12;;;;;;;6.80;4.10;;;12.00;74.20;;;;;;6397289;22;20418;-76
2022/10/22 09:50:40;;;;;;;5.72;3.55;;;12.00;74.30;;;;;;6343218;22;20424;-78
2022/10/22 09:53:24;;;;;;;9.48;4.03;;;12.00;74.50;;;;;;6397322;22;20022;-77
2022/10/22 09:55:53;;;;;;;7.05;3.67;;;12.10;74.70;;;;;;6342318;22;20010;-76
2022/10/22 09:58:20;;;;;;;6.78;3.40;;;12.10;74.70;;;;;;6397883;22;20417;-77
2022/10/22 10:00:51;;;;;;;6.95;3.53;;;12.10;74.90;;;;;;6397044;22;20104;-76
2022/10/22 10:03:29;;;;;;;7.18;3.65;;;12.10;74.70;;;;;;6396730;22;20103;-76
2022/10/22 10:05:58;;;;;;;6.57;3.40;;;12.10;74.60;;;;;;6397051;22;20018;-76
2022/10/22 10:08:25;;;;;;;6.07;3.33;;;12.10;74.60;;;;;;6397446;22;20024;-75
2022/10/22 10:11:31;;;;;;;4.55;3.05;;;12.10;74.80;;;;;;6397089;22;20013;-76
2022/10/22 10:14:12;;;;;;;6.60;3.15;;;12.10;75.20;;;;;;6397619;22;20066;-75
2022/10/22 10:16:53;;;;;;;5.93;3.05;;;12.10;75.60;;;;;;6369890;22;20097;-76
2022/10/22 10:19:18;;;;;;;6.85;3.30;;;12.20;76.40;;;;;;6397103;22;20013;-76
2022/10/22 10:21:50;;;;;;;7.15;3.15;;;12.20;75.90;;;;;;6368573;22;20433;-75
2022/10/22 10:24:23;;;;;;;5.80;3.65;;;12.20;76.00;;;;;;6397052;22;20010;-74
2022/10/22 10:27:11;;;;;;;5.90;3.50;;;12.20;75.60;;;;;;6396724;22;20483;-76
2022/10/22 10:29:58;;;;;;;5.93;3.15;;;12.30;75.60;;;;;;6369535;22;20018;-76
2022/10/22 10:32:52;;;;;;;5.72;3.50;;;12.30;75.50;;;;;;6375691;22;20027;-76
2022/10/22 10:35:27;;;;;;;5.68;3.13;;;12.30;75.40;;;;;;6383617;22;20346;-76
2022/10/22 10:38:31;;;;;;;5.90;3.33;;;12.30;75.40;;;;;;6369257;22;20460;-76
2022/10/22 10:41:18;;;;;;;7.60;2.95;;;12.30;75.30;;;;;;6396872;22;20076;-75
2022/10/22 10:43:53;;;;;;;;;;;12.40;75.40;;;;;;6369531;22;20010;-74
2022/10/22 10:46:38;;;;;;;3.75;3.30;;;12.40;75.20;;;;;;6343019;22;20401;-75
2022/10/22 10:49:29;;;;;;;3.97;3.25;;;12.40;75.00;;;;;;6396702;22;20151;-75
2022/10/22 10:52:15;;;;;;;7.60;2.92;;;12.40;74.90;;;;;;6342404;22;20484;-76
2022/10/22 10:54:59;;;;;;;4.75;3.25;;;12.40;74.80;;;;;;6396536;22;20484;-75
2022/10/22 10:57:46;;;;;;;3.67;2.80;;;12.40;74.90;;;;;;6342184;22;20014;-75
2022/10/22 11:00:21;;;;;;;4.90;3.30;;;12.50;74.60;;;;;;6396758;22;20347;-76
2022/10/22 11:03:14;;;;;;;6.10;3.22;;;12.50;74.30;;;;;;6396567;22;20018;-75
2022/10/22 11:05:58;;;;;;;4.55;3.40;;;12.50;74.60;;;;;;6369127;22;20166;-74
2022/10/22 11:08:30;;;;;;;4.63;3.10;;;12.50;74.90;;;;;;6396351;22;20589;-74
2022/10/22 11:11:25;;;;;;;5.47;2.97;;;12.50;74.80;;;;;;6397392;22;20017;-74
2022/10/22 11:13:59;;;;;;;7.57;3.08;;;12.50;74.60;;;;;;6396545;22;20058;-74
2022/10/22 11:16:36;;;;;;;7.63;3.30;;;12.50;74.80;;;;;;6398002;22;20538;-74
2022/10/22 11:19:10;;;;;;;4.50;2.85;;;12.50;74.90;;;;;;6370344;22;20014;-74
2022/10/22 11:22:05;;;;;;;3.63;2.63;;;12.60;74.80;;;;;;6398764;22;20526;-74
2022/10/22 11:24:53;;;;;;;5.10;2.65;;;12.50;74.90;;;;;;6398399;22;20303;-74
2022/10/22 11:27:19;;;;;;;7.18;2.20;;;12.60;74.90;;;;;;6370132;22;20084;-74
2022/10/22 11:29:51;;;;;;;3.97;2.80;;;12.60;74.80;;;;;;6398762;22;20037;-74
2022/10/22 11:32:19;;;;;;;5.40;2.80;;;12.60;74.70;;;;;;6343690;22;20054;-75
2022/10/22 11:34:53;;;;;;;3.05;2.30;;;12.60;74.70;;;;;;6370215;22;20519;-75
2022/10/22 11:37:21;;;;;;;5.50;2.97;;;12.60;74.60;;;;;;6370414;22;20352;-75
2022/10/22 11:39:54;;;;;;;5.97;2.78;;;12.60;74.70;;;;;;6370382;22;20471;-76
2022/10/22 11:42:42;;;;;;;2.90;2.50;;;12.70;74.50;;;;;;6370034;22;20041;-74
2022/10/22 11:45:14;;;;;;;9.32;2.60;;;12.60;74.30;;;;;;6398810;22;20018;-73
2022/10/22 11:47:55;;;;;;;5.95;2.72;;;12.70;74.10;;;;;;6398184;22;20423;-73
2022/10/22 11:50:24;;;;;;;3.88;2.95;;;12.60;74.10;;;;;;6369840;22;20010;-75
2022/10/22 11:53:01;;;;;;;3.50;2.78;;;12.70;74.10;;;;;;6369669;22;20049;-74
2022/10/22 11:55:49;;;;;;;6.63;2.92;;;12.70;74.00;;;;;;6398547;22;19997;-74
2022/10/22 11:58:27;;;;;;;6.68;2.80;;;12.70;74.20;;;;;;6397890;22;20354;-74
2022/10/22 12:01:08;;;;;;;4.65;2.53;;;12.70;74.10;;;;;;6369669;22;20021;-74
2022/10/22 12:03:36;;;;;;;6.55;2.75;;;12.70;74.20;;;;;;6397364;22;20534;-74
2022/10/22 12:06:11;;;;;;;4.75;3.20;;;12.70;74.30;;;;;;6397615;22;20105;-75
2022/10/22 12:08:52;;;;;;;4.33;3.37;;;12.70;74.50;;;;;;6369781;22;20026;-75
2022/10/22 12:11:23;;;;;;;5.82;3.08;;;12.70;74.50;;;;;;6369775;22;20274;-76
2022/10/22 12:14:11;;;;;;;6.05;3.22;;;12.70;74.40;;;;;;6397560;22;20031;-76
2022/10/22 12:16:38;;;;;;;5.78;3.20;;;12.70;74.30;;;;;;6370051;22;20009;-75
2022/10/22 12:19:31;;;;;;;5.55;3.13;;;12.80;74.30;;;;;;6397670;22;20055;-76
2022/10/22 12:22:17;;;;;;;4.90;3.05;;;12.70;74.10;;;;;;6385146;22;20089;-76
2022/10/22 12:24:44;;;;;;;;;;;12.80;74.00;;;;;;6369701;22;20010;-77
2022/10/22 12:27:38;;;;;;;7.45;3.10;;;12.80;73.60;;;;;;6342959;22;19921;-76
2022/10/22 12:30:23;;;;;;;10.10;3.10;;;12.70;73.40;;;;;;6393148;22;20025;-76
2022/10/22 12:32:55;;;;;;;4.40;3.07;;;12.70;73.30;;;;;;6369260;22;20026;-76
2022/10/22 12:35:24;;;;;;;7.13;3.15;;;12.70;73.20;;;;;;6398051;22;20037;-76
2022/10/22 12:37:53;;;;;;;5.68;3.20;;;12.70;73.20;;;;;;6317034;22;20461;-76
2022/10/22 12:40:28;;;;;;;5.18;2.97;;;12.70;73.00;;;;;;6398245;22;20468;-76
2022/10/22 12:42:59;;;;;;;5.97;3.40;;;12.70;73.00;;;;;;6397473;22;20022;-76
2022/10/22 12:45:28;;;;;;;7.22;3.28;;;12.70;72.80;;;;;;6343400;22;20041;-76
2022/10/22 12:48:00;;;;;;;4.40;3.08;;;12.70;72.90;;;;;;6343068;22;20022;-76
2022/10/22 12:50:39;;;;;;;4.28;3.13;;;12.70;73.00;;;;;;6369856;22;20342;-75
2022/10/22 12:53:15;;;;;;;7.32;3.03;;;12.70;73.10;;;;;;6397289;22;20484;-77
2022/10/22 12:55:49;;;;;;;5.13;3.33;;;12.70;73.20;;;;;;6399242;22;20268;-77
2022/10/22 12:58:18;;;;;;;5.30;3.40;;;12.70;73.10;;;;;;6345262;22;20037;-76
2022/10/22 13:00:46;;;;;;;4.32;2.97;;;12.70;73.00;;;;;;6369664;22;20113;-77
2022/10/22 13:03:33;;;;;;;6.18;3.15;;;12.70;73.00;;;;;;6317372;22;20393;-77
2022/10/22 13:06:12;;;;;;;6.95;3.70;;;12.70;73.00;;;;;;6369443;22;20017;-76
2022/10/22 13:08:39;;;;;;;5.53;3.10;;;12.70;72.70;;;;;;6369161;22;20366;-76
2022/10/22 13:11:10;;;;;;;7.72;3.78;;;12.70;72.90;;;;;;6398861;22;20018;-76